sensor_id;sensor_type;location;lat;lon;timestamp;P1;durP1;ratioP1;P2;durP2;ratioP2
29162;SDS011;20331;53.144;8.208;2022-09-24T00:05:50;16.95;;;13.52;;
29162;SDS011;20331;53.144;8.208;2022-09-24T00:16:14;19.30;;;12.65;;
29162;SDS011;20331;53.144;8.208;2022-09-24T00:26:36;20.35;;;14.07;;
29162;SDS011;20331;53.144;8.208;2022-09-24T00:37:10;21.90;;;14.73;;
29162;SDS011;20331;53.144;8.208;2022-09-24T00:58:00;20.05;;;14.55;;
29162;SDS011;20331;53.144;8.208;2022-09-24T01:08:24;19.40;;;14.27;;
29162;SDS011;20331;53.144;8.208;2022-09-24T01:29:31;19.70;;;14.68;;
29162;SDS011;20331;53.144;8.208;2022-09-24T01:39:57;24.85;;;14.98;;
29162;SDS011;20331;53.144;8.208;2022-09-24T01:50:19;22.77;;;16.00;;
29162;SDS011;20331;53.144;8.208;2022-09-24T02:00:46;20.70;;;15.80;;
29162;SDS011;20331;53.144;8.208;2022-09-24T02:11:11;21.42;;;15.10;;
29162;SDS011;20331;53.144;8.208;2022-09-24T02:21:34;28.25;;;17.15;;
29162;SDS011;20331;53.144;8.208;2022-09-24T02:31:58;27.17;;;18.48;;
29162;SDS011;20331;53.144;8.208;2022-09-24T02:42:21;28.02;;;18.67;;
29162;SDS011;20331;53.144;8.208;2022-09-24T02:52:43;28.73;;;19.73;;
29162;SDS011;20331;53.144;8.208;2022-09-24T03:03:04;28.30;;;20.38;;
29162;SDS011;20331;53.144;8.208;2022-09-24T03:13:26;40.80;;;21.17;;
29162;SDS011;20331;53.144;8.208;2022-09-24T03:23:47;38.85;;;23.60;;
29162;SDS011;20331;53.144;8.208;2022-09-24T03:34:09;40.78;;;24.08;;
29162;SDS011;20331;53.144;8.208;2022-09-24T03:44:31;40.13;;;24.70;;
29162;SDS011;20331;53.144;8.208;2022-09-24T03:54:52;36.78;;;24.10;;
29162;SDS011;20331;53.144;8.208;2022-09-24T04:05:14;41.75;;;25.73;;
29162;SDS011;20331;53.144;8.208;2022-09-24T04:15:36;41.42;;;26.35;;
29162;SDS011;20331;53.144;8.208;2022-09-24T04:36:22;39.53;;;26.67;;
29162;SDS011;20331;53.144;8.208;2022-09-24T04:57:05;48.37;;;28.23;;
29162;SDS011;20331;53.144;8.208;2022-09-24T05:07:28;45.28;;;28.20;;
29162;SDS011;20331;53.144;8.208;2022-09-24T05:17:49;43.20;;;27.90;;
29162;SDS011;20331;53.144;8.208;2022-09-24T05:38:32;39.73;;;26.13;;
29162;SDS011;20331;53.144;8.208;2022-09-24T05:48:54;40.45;;;25.63;;
29162;SDS011;20331;53.144;8.208;2022-09-24T05:59:16;38.85;;;25.42;;
29162;SDS011;20331;53.144;8.208;2022-09-24T06:09:37;40.55;;;24.35;;
29162;SDS011;20331;53.144;8.208;2022-09-24T06:19:58;39.67;;;25.33;;
29162;SDS011;20331;53.144;8.208;2022-09-24T06:30:20;37.78;;;22.67;;
29162;SDS011;20331;53.144;8.208;2022-09-24T06:40:42;33.95;;;23.13;;
29162;SDS011;20331;53.144;8.208;2022-09-24T06:51:05;41.65;;;25.00;;
29162;SDS011;20331;53.144;8.208;2022-09-24T07:01:27;37.63;;;24.30;;
29162;SDS011;20331;53.144;8.208;2022-09-24T07:11:49;34.53;;;25.35;;
29162;SDS011;20331;53.144;8.208;2022-09-24T07:22:11;40.95;;;26.05;;
29162;SDS011;20331;53.144;8.208;2022-09-24T07:32:32;37.85;;;25.80;;
29162;SDS011;20331;53.144;8.208;2022-09-24T07:42:54;38.17;;;25.27;;
29162;SDS011;20331;53.144;8.208;2022-09-24T07:53:17;38.28;;;26.10;;
29162;SDS011;20331;53.144;8.208;2022-09-24T08:03:38;36.92;;;24.75;;
29162;SDS011;20331;53.144;8.208;2022-09-24T08:14:01;38.53;;;24.55;;
29162;SDS011;20331;53.144;8.208;2022-09-24T08:34:43;35.47;;;23.17;;
29162;SDS011;20331;53.144;8.208;2022-09-24T08:45:05;36.47;;;23.58;;
29162;SDS011;20331;53.144;8.208;2022-09-24T08:55:48;38.65;;;23.75;;
29162;SDS011;20331;53.144;8.208;2022-09-24T09:17:02;40.00;;;23.23;;
29162;SDS011;20331;53.144;8.208;2022-09-24T09:27:32;35.45;;;22.20;;
29162;SDS011;20331;53.144;8.208;2022-09-24T09:48:44;36.20;;;22.05;;
29162;SDS011;20331;53.144;8.208;2022-09-24T10:09:32;36.10;;;21.25;;
29162;SDS011;20331;53.144;8.208;2022-09-24T10:19:54;35.25;;;20.65;;
29162;SDS011;20331;53.144;8.208;2022-09-24T10:30:17;31.48;;;18.63;;
29162;SDS011;20331;53.144;8.208;2022-09-24T10:40:54;29.08;;;17.25;;
29162;SDS011;20331;53.144;8.208;2022-09-24T11:44:46;27.00;;;15.98;;
29162;SDS011;20331;53.144;8.208;2022-09-24T11:55:36;26.85;;;17.40;;
29162;SDS011;20331;53.144;8.208;2022-09-24T12:06:06;32.13;;;16.67;;
29162;SDS011;20331;53.144;8.208;2022-09-24T12:16:35;28.87;;;17.17;;
29162;SDS011;20331;53.144;8.208;2022-09-24T12:27:00;27.30;;;16.38;;
29162;SDS011;20331;53.144;8.208;2022-09-24T12:37:28;26.25;;;15.88;;
29162;SDS011;20331;53.144;8.208;2022-09-24T12:47:55;22.52;;;14.75;;
29162;SDS011;20331;53.144;8.208;2022-09-24T12:58:25;23.10;;;14.48;;
29162;SDS011;20331;53.144;8.208;2022-09-24T13:08:50;21.73;;;13.25;;
29162;SDS011;20331;53.144;8.208;2022-09-24T13:29:44;22.23;;;12.73;;
29162;SDS011;20331;53.144;8.208;2022-09-24T13:40:14;17.95;;;11.32;;
29162;SDS011;20331;53.144;8.208;2022-09-24T13:50:42;12.23;;;8.18;;
29162;SDS011;20331;53.144;8.208;2022-09-24T14:01:21;12.80;;;8.43;;
29162;SDS011;20331;53.144;8.208;2022-09-24T14:11:51;14.05;;;10.98;;
29162;SDS011;20331;53.144;8.208;2022-09-24T14:22:18;13.27;;;9.68;;
29162;SDS011;20331;53.144;8.208;2022-09-24T14:32:53;9.23;;;7.40;;
29162;SDS011;20331;53.144;8.208;2022-09-24T14:53:58;5.60;;;4.80;;
29162;SDS011;20331;53.144;8.208;2022-09-24T15:04:21;5.53;;;4.50;;
29162;SDS011;20331;53.144;8.208;2022-09-24T15:14:53;3.55;;;3.20;;
29162;SDS011;20331;53.144;8.208;2022-09-24T15:25:16;5.63;;;2.00;;
29162;SDS011;20331;53.144;8.208;2022-09-24T15:35:38;2.08;;;1.70;;
29162;SDS011;20331;53.144;8.208;2022-09-24T15:46:04;4.18;;;2.42;;
29162;SDS011;20331;53.144;8.208;2022-09-24T15:56:25;4.80;;;2.10;;
29162;SDS011;20331;53.144;8.208;2022-09-24T16:06:48;2.63;;;2.20;;
29162;SDS011;20331;53.144;8.208;2022-09-24T16:17:10;3.85;;;2.20;;
29162;SDS011;20331;53.144;8.208;2022-09-24T16:27:32;3.58;;;2.53;;
29162;SDS011;20331;53.144;8.208;2022-09-24T16:37:55;3.17;;;2.00;;
29162;SDS011;20331;53.144;8.208;2022-09-24T16:58:39;4.13;;;2.43;;
29162;SDS011;20331;53.144;8.208;2022-09-24T17:09:04;4.15;;;2.05;;
29162;SDS011;20331;53.144;8.208;2022-09-24T17:19:44;2.28;;;2.08;;
29162;SDS011;20331;53.144;8.208;2022-09-24T17:30:05;5.22;;;3.97;;
29162;SDS011;20331;53.144;8.208;2022-09-24T17:40:28;11.48;;;7.93;;
29162;SDS011;20331;53.144;8.208;2022-09-24T17:50:53;14.40;;;10.88;;
29162;SDS011;20331;53.144;8.208;2022-09-24T18:01:17;16.65;;;12.95;;
29162;SDS011;20331;53.144;8.208;2022-09-24T18:11:44;19.90;;;14.10;;
29162;SDS011;20331;53.144;8.208;2022-09-24T18:22:10;25.23;;;16.10;;
29162;SDS011;20331;53.144;8.208;2022-09-24T18:32:32;27.13;;;16.63;;
29162;SDS011;20331;53.144;8.208;2022-09-24T18:42:54;23.58;;;17.30;;
29162;SDS011;20331;53.144;8.208;2022-09-24T18:53:18;23.83;;;17.15;;
29162;SDS011;20331;53.144;8.208;2022-09-24T19:03:39;23.77;;;16.38;;
29162;SDS011;20331;53.144;8.208;2022-09-24T19:14:03;32.53;;;15.98;;
29162;SDS011;20331;53.144;8.208;2022-09-24T19:24:24;22.55;;;12.30;;
29162;SDS011;20331;53.144;8.208;2022-09-24T19:45:08;21.73;;;11.32;;
29162;SDS011;20331;53.144;8.208;2022-09-24T19:55:33;14.90;;;10.57;;
29162;SDS011;20331;53.144;8.208;2022-09-24T20:05:55;18.45;;;10.57;;
29162;SDS011;20331;53.144;8.208;2022-09-24T20:16:17;19.10;;;11.60;;
29162;SDS011;20331;53.144;8.208;2022-09-24T20:26:46;31.23;;;10.95;;
29162;SDS011;20331;53.144;8.208;2022-09-24T20:37:26;16.90;;;9.43;;
29162;SDS011;20331;53.144;8.208;2022-09-24T20:58:10;23.05;;;9.98;;
29162;SDS011;20331;53.144;8.208;2022-09-24T21:08:32;15.23;;;8.90;;
29162;SDS011;20331;53.144;8.208;2022-09-24T21:18:54;17.27;;;6.85;;
29162;SDS011;20331;53.144;8.208;2022-09-24T21:29:17;14.27;;;5.35;;
29162;SDS011;20331;53.144;8.208;2022-09-24T21:39:40;11.75;;;3.30;;
29162;SDS011;20331;53.144;8.208;2022-09-24T21:50:04;10.43;;;2.38;;
29162;SDS011;20331;53.144;8.208;2022-09-24T22:00:26;9.65;;;2.15;;
29162;SDS011;20331;53.144;8.208;2022-09-24T22:10:48;6.72;;;1.55;;
29162;SDS011;20331;53.144;8.208;2022-09-24T22:21:11;5.97;;;1.25;;
29162;SDS011;20331;53.144;8.208;2022-09-24T22:31:34;9.07;;;1.55;;
29162;SDS011;20331;53.144;8.208;2022-09-24T22:41:55;16.23;;;1.80;;
29162;SDS011;20331;53.144;8.208;2022-09-24T22:52:17;10.05;;;1.42;;
29162;SDS011;20331;53.144;8.208;2022-09-24T23:02:38;8.98;;;1.30;;
29162;SDS011;20331;53.144;8.208;2022-09-24T23:12:59;9.10;;;1.48;;
29162;SDS011;20331;53.144;8.208;2022-09-24T23:23:21;12.40;;;1.80;;
29162;SDS011;20331;53.144;8.208;2022-09-24T23:44:04;6.30;;;1.33;;
29162;SDS011;20331;53.144;8.208;2022-09-24T23:54:26;7.55;;;1.30;;
